Main page
METAR-TAF:

METAR-TAF

Airports :

Vilhena Airport

Vilhena, Rondônia, Brazil

latitude: 12-42S, longitude: 060-06W, elevation: 612 m

Current weather observation

The report was made 8 hours and 40 minutes ago, at 23:00 UTC
Wind 2 kt from the South
Temperature 23°C
Humidity 100%
Pressure 1012 hPa
Visibility 10 km or more
Few clouds at a height of 3500 ft

METAR: SBVH 182300Z 18002KT 9999 FEW035 23/23 Q1012

Time: 03:40 (07:40 UTC)

Forecast

The report was made 3 hours and 40 minutes ago, at 04:00 UTC
Forecast valid from 19 at 06 UTC to 19 at 18 UTC
Wind 9 kt from the East/Northeast
Visibility: 6000 m
Scattered clouds at a height of 200 ft
Becoming
from 19 at 13 UTC to 19 at 15 UTC
Scattered clouds at a height of 1500 ft
Becoming
from 19 at 16 UTC to 19 at 18 UTC
Wind 5 kt from the North
Broken clouds at a height of 2500 ft
Few clouds at a height of 2800 ft, Towering cumulus.

TAF: SBVH 190400Z 1906/1918 07009KT 6000 SCT002 TN19/1907Z TX31/1917Z BECMG 1913/1915 SCT015 BECMG 1916/1918 36005KT BKN025 FEW028TCU RMK PEM

Weather observations and forecasts of more than 4000 airports (METAR and TAF reports).

The available stations are represented by yellow and red dots on the map.

Hover mouse over dot to see the name of the station.

Then click to see weather observations and forecasts.

To change the map : click on the green buttons with a black cross to zoom in, on the green button with a dash to zoom out, or on the green arrows for adjacent maps.


METAR-TAF: